Terminal Aerodrome Forecast
Issued by NWS Jacksonville, FL

Home | Current Version | Previous Version | Text Only | Print | Product List | Glossary On
Versions: 1 2 3 4 5 6 7 8 9 10 11 12 13 14 15 16 17 18 19 20 21 22 23
597
FTUS42 KJAX 172348
TAFJAX
TAF
KJAX 172348Z 1800/1824 01010KT P6SM SCT025
      TEMPO 1800/1802 BKN040
     FM180900 01010KT P6SM SCT020 BKN030
     FM181400 03013G23KT P6SM SCT025 BKN035=

USA.gov is the U.S. government's official web portal to all federal, state and local government web resources and services.